createdAt,value
2022-09-17T00:03:10.613Z,9.40
2022-09-17T00:06:35.499Z,6.50
2022-09-17T00:09:23.013Z,5.60
2022-09-17T00:12:02.461Z,5.50
2022-09-17T00:14:53.052Z,5.40
2022-09-17T00:20:13.246Z,6.40
2022-09-17T00:22:43.498Z,5.70
2022-09-17T00:25:25.301Z,4.60
2022-09-17T00:28:05.440Z,6.00
2022-09-17T00:30:49.104Z,4.30
2022-09-17T00:33:31.371Z,6.00
2022-09-17T00:36:39.544Z,6.20
2022-09-17T00:39:18.415Z,4.70
2022-09-17T00:42:16.168Z,4.70
2022-09-17T00:45:07.889Z,6.00
2022-09-17T00:47:51.769Z,6.20
2022-09-17T00:50:44.331Z,5.40
2022-09-17T00:53:47.774Z,4.80
2022-09-17T00:56:27.841Z,5.20
2022-09-17T00:59:03.402Z,6.50
2022-09-17T01:01:56.215Z,5.70
2022-09-17T01:04:51.109Z,5.80
2022-09-17T01:08:07.555Z,5.50
2022-09-17T01:11:26.890Z,5.10
2022-09-17T01:14:22.897Z,5.10
2022-09-17T01:21:23.031Z,5.70
2022-09-17T01:24:23.538Z,5.20
2022-09-17T01:27:58.082Z,5.60
2022-09-17T01:31:02.317Z,6.40
2022-09-17T01:33:46.207Z,7.00
2022-09-17T01:36:52.462Z,5.20
2022-09-17T01:39:57.860Z,5.40
2022-09-17T01:43:26.521Z,5.60
2022-09-17T01:46:04.521Z,8.30
2022-09-17T01:48:44.151Z,7.60
2022-09-17T01:51:43.576Z,8.60
2022-09-17T01:54:40.389Z,7.70
2022-09-17T01:57:30.643Z,5.30
2022-09-17T02:00:25.214Z,7.20
2022-09-17T02:03:48.108Z,7.60
2022-09-17T02:06:35.904Z,5.90
2022-09-17T02:09:36.326Z,9.70
2022-09-17T02:12:38.380Z,6.10
2022-09-17T02:15:15.193Z,5.20
2022-09-17T02:17:49.459Z,6.70
2022-09-17T02:20:29.970Z,6.10
2022-09-17T02:23:14.213Z,7.10
2022-09-17T02:26:01.727Z,6.10
2022-09-17T02:29:02.456Z,7.70
2022-09-17T02:31:55.799Z,5.50
2022-09-17T02:34:36.409Z,5.00
2022-09-17T02:37:12.652Z,5.90
2022-09-17T02:40:00.681Z,4.30
2022-09-17T02:43:07.595Z,7.10
2022-09-17T02:45:56.626Z,8.00
2022-09-17T02:48:59.937Z,8.60
2022-09-17T02:51:53.693Z,6.20
2022-09-17T02:55:01.014Z,5.50
2022-09-17T02:58:13.732Z,6.60
2022-09-17T03:00:43.267Z,5.60
2022-09-17T03:03:19.774Z,7.50
2022-09-17T03:09:20.139Z,6.80
2022-09-17T03:12:21.394Z,7.50
2022-09-17T03:14:59.253Z,6.50
2022-09-17T03:17:30.005Z,5.10
2022-09-17T03:19:58.315Z,7.30
2022-09-17T03:22:53.751Z,6.50
2022-09-17T03:25:39.283Z,6.30
2022-09-17T03:28:27.510Z,6.90
2022-09-17T03:31:02.902Z,6.60
2022-09-17T03:33:32.861Z,6.90
2022-09-17T03:36:02.119Z,7.70
2022-09-17T03:38:48.328Z,6.30
2022-09-17T03:41:34.832Z,5.80
2022-09-17T03:44:11.366Z,6.70
2022-09-17T03:46:40.624Z,9.60
2022-09-17T03:49:52.343Z,9.00
2022-09-17T03:52:30.742Z,6.40
2022-09-17T03:55:18.710Z,5.60
2022-09-17T03:57:48.538Z,7.30
2022-09-17T04:00:25.167Z,6.20
2022-09-17T04:03:12.562Z,7.10
2022-09-17T04:06:43.493Z,7.60
2022-09-17T04:09:13.694Z,6.20
2022-09-17T04:11:51.360Z,7.00
2022-09-17T04:14:31.101Z,7.70
2022-09-17T04:17:00.942Z,9.60
2022-09-17T04:19:48.758Z,6.10
2022-09-17T04:22:25.198Z,5.40
2022-09-17T04:25:35.261Z,6.70
2022-09-17T04:28:23.323Z,6.40
2022-09-17T04:30:54.056Z,6.00
2022-09-17T04:33:27.863Z,7.80
2022-09-17T04:36:06.197Z,6.20
2022-09-17T04:38:53.804Z,7.00
2022-09-17T04:41:33.655Z,7.00
2022-09-17T04:44:22.003Z,7.80
2022-09-17T04:47:02.291Z,7.30
2022-09-17T04:49:48.855Z,10.20
2022-09-17T04:52:30.847Z,6.60
2022-09-17T04:55:08.756Z,6.60
2022-09-17T04:57:47.181Z,6.50
2022-09-17T05:00:38.721Z,8.10
2022-09-17T05:03:35.346Z,6.70
2022-09-17T05:06:10.586Z,5.40
2022-09-17T05:08:54.049Z,11.40
2022-09-17T05:11:29.583Z,7.90
2022-09-17T05:14:08.754Z,7.30
2022-09-17T05:16:44.702Z,6.20
2022-09-17T05:19:20.120Z,7.00
2022-09-17T05:22:06.763Z,7.40
2022-09-17T05:25:00.492Z,7.60
2022-09-17T05:27:33.529Z,6.70
2022-09-17T05:30:19.141Z,9.70
2022-09-17T05:33:06.875Z,5.10
2022-09-17T05:35:38.220Z,5.50
2022-09-17T05:38:09.735Z,5.50
2022-09-17T05:40:43.863Z,8.00
2022-09-17T05:43:41.816Z,6.80
2022-09-17T05:46:21.144Z,4.50
2022-09-17T05:49:10.449Z,6.40
2022-09-17T05:51:59.173Z,6.70
2022-09-17T05:54:36.583Z,4.60
2022-09-17T05:57:23.264Z,5.20
2022-09-17T06:00:12.887Z,4.00
2022-09-17T06:02:40.875Z,4.80
2022-09-17T06:05:12.262Z,7.30
2022-09-17T06:07:45.756Z,5.00
2022-09-17T06:11:00.213Z,6.00
2022-09-17T06:13:31.064Z,4.40
2022-09-17T06:16:21.407Z,3.50
2022-09-17T06:18:53.038Z,3.60
2022-09-17T06:21:24.060Z,3.20
2022-09-17T06:24:17.888Z,4.30
2022-09-17T06:26:58.817Z,3.80
2022-09-17T06:29:49.635Z,4.90
2022-09-17T06:32:43.572Z,4.00
2022-09-17T06:35:27.330Z,5.00
2022-09-17T06:38:18.948Z,4.40
2022-09-17T06:41:05.989Z,4.00
2022-09-17T06:43:43.726Z,4.10
2022-09-17T06:46:40.010Z,4.60
2022-09-17T06:49:10.729Z,4.10
2022-09-17T06:52:01.847Z,6.20
2022-09-17T06:54:41.350Z,6.80
2022-09-17T06:57:31.044Z,4.20
2022-09-17T07:00:02.418Z,3.80
2022-09-17T07:03:00.489Z,5.00
2022-09-17T07:05:41.129Z,3.20
2022-09-17T07:08:17.693Z,7.10
2022-09-17T07:11:08.349Z,3.50
2022-09-17T07:14:00.534Z,4.70
2022-09-17T07:16:35.879Z,5.00
2022-09-17T07:19:05.521Z,2.80
2022-09-17T07:21:40.172Z,3.60
2022-09-17T07:24:11.069Z,3.30
2022-09-17T07:27:00.547Z,4.30
2022-09-17T07:30:21.108Z,5.20
2022-09-17T07:33:12.171Z,6.10
2022-09-17T07:39:46.352Z,4.40
2022-09-17T07:42:20.382Z,9.40
2022-09-17T07:44:52.860Z,4.60
2022-09-17T07:47:48.411Z,5.30
2022-09-17T07:50:43.292Z,4.30
2022-09-17T07:53:48.457Z,7.00
2022-09-17T07:56:51.324Z,6.30
2022-09-17T08:03:20.428Z,5.00
2022-09-17T08:06:19.814Z,5.30
2022-09-17T08:09:06.960Z,5.60
2022-09-17T08:11:56.457Z,4.20
2022-09-17T08:14:29.926Z,3.20
2022-09-17T08:17:10.793Z,4.00
2022-09-17T08:19:54.399Z,6.80
2022-09-17T08:22:50.175Z,4.00
2022-09-17T08:26:19.575Z,2.50
2022-09-17T08:29:08.339Z,4.00
2022-09-17T08:31:48.246Z,5.50
2022-09-17T08:37:50.677Z,5.80
2022-09-17T08:40:51.580Z,5.00
2022-09-17T08:43:28.908Z,4.70
2022-09-17T08:46:21.303Z,3.70
2022-09-17T08:49:34.729Z,3.40
2022-09-17T08:52:36.345Z,6.00
2022-09-17T08:55:36.281Z,3.50
2022-09-17T08:58:35.531Z,3.80
2022-09-17T09:01:56.802Z,3.80
2022-09-17T09:04:49.650Z,5.20
2022-09-17T09:07:49.941Z,4.90
2022-09-17T09:10:54.512Z,3.60
2022-09-17T09:14:03.078Z,5.30
2022-09-17T09:19:34.589Z,3.30
2022-09-17T09:22:29.442Z,5.80
2022-09-17T09:25:23.893Z,4.10
2022-09-17T09:28:36.645Z,4.30
2022-09-17T09:31:28.357Z,3.30
2022-09-17T09:34:39.937Z,3.50
2022-09-17T09:37:35.568Z,3.30
2022-09-17T09:40:57.013Z,2.90
2022-09-17T09:44:09.050Z,4.30
2022-09-17T09:47:29.198Z,3.80
2022-09-17T09:51:05.580Z,3.10
2022-09-17T09:58:47.833Z,2.40
2022-09-17T10:02:04.134Z,2.60
2022-09-17T10:04:53.267Z,3.70
2022-09-17T10:07:51.311Z,3.40
2022-09-17T10:11:28.167Z,3.30
2022-09-17T10:14:25.405Z,4.50
2022-09-17T10:17:28.478Z,5.80
2022-09-17T10:20:22.938Z,2.40
2022-09-17T10:23:00.156Z,3.60
2022-09-17T10:25:42.481Z,3.80
2022-09-17T10:28:47.599Z,2.90
2022-09-17T10:31:43.427Z,2.90
2022-09-17T10:34:22.604Z,3.30
2022-09-17T10:37:43.965Z,3.70
2022-09-17T10:40:32.646Z,4.80
2022-09-17T10:43:18.181Z,3.80
2022-09-17T10:46:04.483Z,3.10
2022-09-17T10:48:50.259Z,4.00
2022-09-17T10:51:45.211Z,4.40
2022-09-17T10:54:59.711Z,3.40
2022-09-17T10:57:55.906Z,5.20
2022-09-17T11:01:08.601Z,4.60
2022-09-17T11:03:36.965Z,2.80
2022-09-17T11:06:32.097Z,4.40
2022-09-17T11:09:35.620Z,5.70
2022-09-17T11:12:45.259Z,3.50
2022-09-17T11:16:09.668Z,3.30
2022-09-17T11:19:11.105Z,2.50
2022-09-17T11:21:57.475Z,2.70
2022-09-17T11:25:00.334Z,2.40
2022-09-17T11:28:37.665Z,2.30
2022-09-17T11:31:13.948Z,2.90
2022-09-17T11:38:05.182Z,2.00
2022-09-17T11:41:07.626Z,2.40
2022-09-17T11:44:12.241Z,3.70
2022-09-17T11:47:35.721Z,2.50
2022-09-17T11:50:35.388Z,3.90
2022-09-17T11:53:53.401Z,2.40
2022-09-17T11:56:39.097Z,3.30
2022-09-17T11:59:29.698Z,2.50
2022-09-17T12:02:34.975Z,2.90
2022-09-17T12:05:40.428Z,4.20
2022-09-17T12:13:07.680Z,2.20
2022-09-17T12:16:08.034Z,4.00
2022-09-17T12:19:05.474Z,2.80
2022-09-17T12:21:54.865Z,2.80
2022-09-17T12:24:50.155Z,2.70
2022-09-17T12:28:14.626Z,2.30
2022-09-17T12:31:31.873Z,2.10
2022-09-17T12:35:22.928Z,2.20
2022-09-17T12:41:17.757Z,2.30
2022-09-17T12:44:05.486Z,2.10
2022-09-17T12:46:57.241Z,2.70
2022-09-17T12:50:28.283Z,2.50
2022-09-17T12:53:23.918Z,3.10
2022-09-17T12:55:58.843Z,2.20
2022-09-17T12:59:10.318Z,4.00
2022-09-17T13:02:00.278Z,3.10
2022-09-17T13:05:12.993Z,3.30
2022-09-17T13:08:21.715Z,2.80
2022-09-17T13:11:28.724Z,2.70
2022-09-17T13:14:38.301Z,4.10
2022-09-17T13:17:39.832Z,4.10
2022-09-17T13:20:21.937Z,3.90
2022-09-17T13:23:07.330Z,4.10
2022-09-17T13:26:34.438Z,3.50
2022-09-17T13:29:16.015Z,3.60
2022-09-17T13:35:33.719Z,11.80
2022-09-17T13:38:15.881Z,15.10
2022-09-17T13:41:21.408Z,16.50
2022-09-17T13:43:57.607Z,10.10
2022-09-17T13:46:48.606Z,16.70
2022-09-17T13:49:50.282Z,15.70
2022-09-17T13:52:53.413Z,14.70
2022-09-17T13:56:09.158Z,13.90
2022-09-17T14:02:20.684Z,6.90
2022-09-17T14:05:39.675Z,5.70
2022-09-17T14:08:51.017Z,6.70
2022-09-17T14:11:52.129Z,4.60
2022-09-17T14:14:54.964Z,6.70
2022-09-17T14:17:56.601Z,4.30
2022-09-17T14:21:01.013Z,5.20
2022-09-17T14:23:58.484Z,5.20
2022-09-17T14:27:05.676Z,7.20
2022-09-17T14:30:19.798Z,5.50
2022-09-17T14:33:30.882Z,8.10
2022-09-17T14:36:28.845Z,8.30
2022-09-17T14:39:58.742Z,4.90
2022-09-17T14:42:47.934Z,6.80
2022-09-17T14:45:39.804Z,5.30
2022-09-17T14:48:36.791Z,6.10
2022-09-17T14:51:39.425Z,5.90
2022-09-17T14:54:36.934Z,7.60
2022-09-17T14:57:37.544Z,8.10
2022-09-17T15:00:18.811Z,9.30
2022-09-17T15:03:06.626Z,6.10
2022-09-17T15:06:15.898Z,6.00
2022-09-17T15:09:19.573Z,5.60
2022-09-17T15:12:00.731Z,7.10
2022-09-17T15:14:40.668Z,5.40
2022-09-17T15:17:29.100Z,7.60
2022-09-17T15:20:35.161Z,5.10
2022-09-17T15:24:11.780Z,5.70
2022-09-17T15:30:55.907Z,7.70
2022-09-17T15:33:59.756Z,8.60
2022-09-17T15:37:12.097Z,7.10
2022-09-17T15:39:56.959Z,7.70
2022-09-17T15:43:28.424Z,8.30
2022-09-17T15:46:57.347Z,7.40
2022-09-17T15:50:26.129Z,5.40
2022-09-17T15:53:30.421Z,6.10
2022-09-17T15:56:19.967Z,7.70
2022-09-17T15:59:50.716Z,6.80
2022-09-17T16:02:57.497Z,6.80
2022-09-17T16:06:04.638Z,6.40
2022-09-17T16:09:39.654Z,10.20
2022-09-17T16:13:12.807Z,11.60
2022-09-17T16:15:52.040Z,8.40
2022-09-17T16:18:45.364Z,8.30
2022-09-17T16:21:38.492Z,8.20
2022-09-17T16:24:23.857Z,9.70
2022-09-17T16:27:30.122Z,10.70
2022-09-17T16:30:59.545Z,11.40
2022-09-17T16:34:30.053Z,10.10
2022-09-17T16:38:14.621Z,8.90
2022-09-17T16:41:17.976Z,9.30
2022-09-17T16:44:34.036Z,7.60
2022-09-17T16:50:31.876Z,7.10
2022-09-17T16:53:28.791Z,9.00
2022-09-17T16:56:31.895Z,10.00
2022-09-17T16:59:24.402Z,8.80
2022-09-17T17:02:32.440Z,9.70
2022-09-17T17:05:45.783Z,9.50
2022-09-17T17:08:40.750Z,11.30
2022-09-17T17:11:29.171Z,10.00
2022-09-17T17:14:14.532Z,11.90
2022-09-17T17:16:44.843Z,12.50
2022-09-17T17:19:32.720Z,12.10
2022-09-17T17:22:37.782Z,14.90
2022-09-17T17:25:56.309Z,14.30
2022-09-17T17:28:54.826Z,16.80
2022-09-17T17:31:55.889Z,14.90
2022-09-17T17:34:31.403Z,13.60
2022-09-17T17:37:16.902Z,15.10
2022-09-17T17:40:00.038Z,13.10
2022-09-17T17:42:51.351Z,16.00
2022-09-17T17:48:28.629Z,17.40
2022-09-17T17:51:09.727Z,15.00
2022-09-17T17:53:53.381Z,18.30
2022-09-17T17:56:37.000Z,30.60
2022-09-17T17:59:11.371Z,42.80
2022-09-17T18:02:06.456Z,36.10
2022-09-17T18:04:53.640Z,33.50
2022-09-17T18:07:57.347Z,26.50
2022-09-17T18:11:04.582Z,26.10
2022-09-17T18:13:42.126Z,46.20
2022-09-17T18:16:28.910Z,34.40
2022-09-17T18:19:10.314Z,18.90
2022-09-17T18:21:57.187Z,18.30
2022-09-17T18:24:52.688Z,18.40
2022-09-17T18:27:49.017Z,25.80
2022-09-17T18:31:00.177Z,24.00
2022-09-17T18:33:57.801Z,23.00
2022-09-17T18:36:51.227Z,21.10
2022-09-17T18:39:59.556Z,24.90
2022-09-17T18:43:00.146Z,21.80
2022-09-17T18:46:07.987Z,26.00
2022-09-17T18:49:05.268Z,25.50
2022-09-17T18:52:02.358Z,29.00
2022-09-17T18:54:57.555Z,28.10
2022-09-17T18:57:57.967Z,30.30
2022-09-17T19:00:57.423Z,30.20
2022-09-17T19:03:50.715Z,32.10
2022-09-17T19:06:37.153Z,28.70
2022-09-17T19:09:30.356Z,34.70
2022-09-17T19:12:09.107Z,33.30
2022-09-17T19:15:21.429Z,35.50
2022-09-17T19:18:30.685Z,32.30
2022-09-17T19:21:18.462Z,35.10
2022-09-17T19:24:04.344Z,29.80
2022-09-17T19:27:04.705Z,31.40
2022-09-17T19:29:58.636Z,33.60
2022-09-17T19:32:51.381Z,31.70
2022-09-17T19:35:41.566Z,31.90
2022-09-17T19:38:36.873Z,30.90
2022-09-17T19:41:37.443Z,34.10
2022-09-17T19:44:39.931Z,30.70
2022-09-17T19:47:50.176Z,27.80
2022-09-17T19:50:29.875Z,30.00
2022-09-17T19:53:12.771Z,32.50
2022-09-17T19:56:43.906Z,33.40
2022-09-17T19:59:49.827Z,30.70
2022-09-17T20:02:40.265Z,34.80
2022-09-17T20:05:09.056Z,34.70
2022-09-17T20:07:47.881Z,33.70
2022-09-17T20:10:43.587Z,36.80
2022-09-17T20:13:38.277Z,36.20
2022-09-17T20:16:52.612Z,37.10
2022-09-17T20:19:45.590Z,32.60
2022-09-17T20:22:25.526Z,35.20
2022-09-17T20:25:03.006Z,32.50
2022-09-17T20:27:55.534Z,32.10
2022-09-17T20:30:37.025Z,37.40
2022-09-17T20:33:20.029Z,33.30
2022-09-17T20:36:30.766Z,27.70
2022-09-17T20:39:21.087Z,31.00
2022-09-17T20:42:49.790Z,33.50
2022-09-17T20:45:29.434Z,33.80
2022-09-17T20:48:12.543Z,34.20
2022-09-17T20:51:03.897Z,37.30
2022-09-17T20:53:41.472Z,33.00
2022-09-17T20:56:18.264Z,34.10
2022-09-17T20:59:14.018Z,40.10
2022-09-17T21:01:50.965Z,35.70
2022-09-17T21:04:27.233Z,36.80
2022-09-17T21:07:02.193Z,36.10
2022-09-17T21:09:49.977Z,32.90
2022-09-17T21:12:27.766Z,36.80
2022-09-17T21:15:28.375Z,38.90
2022-09-17T21:18:07.369Z,38.20
2022-09-17T21:20:51.419Z,29.40
2022-09-17T21:23:29.774Z,26.20
2022-09-17T21:26:12.167Z,26.20
2022-09-17T21:29:20.087Z,25.50
2022-09-17T21:32:09.846Z,25.20
2022-09-17T21:35:02.914Z,24.60
2022-09-17T21:37:46.012Z,27.30
2022-09-17T21:40:44.899Z,25.70
2022-09-17T21:44:04.708Z,23.30
2022-09-17T21:46:59.816Z,24.40
2022-09-17T21:49:33.330Z,25.40
2022-09-17T21:52:56.192Z,25.00
2022-09-17T21:55:25.141Z,24.00
2022-09-17T21:58:14.026Z,24.40
2022-09-17T22:01:05.041Z,24.30
2022-09-17T22:06:41.342Z,24.20
2022-09-17T22:09:32.631Z,23.20
2022-09-17T22:12:16.999Z,23.70
2022-09-17T22:15:09.207Z,27.70
2022-09-17T22:18:12.806Z,22.00
2022-09-17T22:20:55.691Z,23.10
2022-09-17T22:23:48.896Z,24.60
2022-09-17T22:29:40.228Z,23.20
2022-09-17T22:33:02.079Z,22.70
2022-09-17T22:35:50.248Z,22.20
2022-09-17T22:38:28.285Z,19.30
2022-09-17T22:41:45.000Z,24.30
2022-09-17T22:44:17.467Z,20.00
2022-09-17T22:46:58.073Z,18.40
2022-09-17T22:49:27.049Z,18.60
2022-09-17T22:52:03.964Z,20.40
2022-09-17T22:54:34.863Z,20.10
2022-09-17T22:57:14.897Z,18.50
2022-09-17T22:59:58.060Z,21.30
2022-09-17T23:03:50.236Z,20.30
2022-09-17T23:06:33.772Z,18.90
2022-09-17T23:09:36.271Z,18.80
2022-09-17T23:16:16.827Z,19.50
2022-09-17T23:19:09.574Z,18.00
2022-09-17T23:21:54.413Z,21.20
2022-09-17T23:27:25.170Z,19.30
2022-09-17T23:30:10.064Z,18.40
2022-09-17T23:33:02.636Z,16.70
2022-09-17T23:35:56.140Z,19.40
2022-09-17T23:38:53.714Z,17.10
2022-09-17T23:41:58.150Z,16.70
2022-09-17T23:44:59.131Z,15.30
2022-09-17T23:50:33.462Z,15.60
2022-09-17T23:53:16.955Z,15.50
2022-09-17T23:56:08.336Z,14.10
2022-09-17T23:59:15.064Z,13.60
